sensor_id;sensor_type;location;lat;lon;timestamp;P1;durP1;ratioP1;P2;durP2;ratioP2
48651;SDS011;34442;52.362;-1.302;2022-08-23T00:01:42;1.10;;;0.52;;
48651;SDS011;34442;52.362;-1.302;2022-08-23T00:04:12;0.52;;;0.30;;
48651;SDS011;34442;52.362;-1.302;2022-08-23T00:06:43;0.52;;;0.40;;
48651;SDS011;34442;52.362;-1.302;2022-08-23T00:09:10;0.30;;;0.30;;
48651;SDS011;34442;52.362;-1.302;2022-08-23T00:11:44;0.50;;;0.50;;
48651;SDS011;34442;52.362;-1.302;2022-08-23T00:16:42;0.22;;;0.22;;
48651;SDS011;34442;52.362;-1.302;2022-08-23T00:19:09;0.32;;;0.30;;
48651;SDS011;34442;52.362;-1.302;2022-08-23T00:21:38;0.43;;;0.43;;
48651;SDS011;34442;52.362;-1.302;2022-08-23T00:24:06;0.70;;;0.65;;
48651;SDS011;34442;52.362;-1.302;2022-08-23T00:29:14;0.80;;;0.50;;
48651;SDS011;34442;52.362;-1.302;2022-08-23T00:31:40;0.60;;;0.50;;
48651;SDS011;34442;52.362;-1.302;2022-08-23T00:34:06;0.52;;;0.40;;
48651;SDS011;34442;52.362;-1.302;2022-08-23T00:36:33;1.35;;;0.57;;
48651;SDS011;34442;52.362;-1.302;2022-08-23T00:38:59;1.20;;;0.68;;
48651;SDS011;34442;52.362;-1.302;2022-08-23T00:41:26;0.65;;;0.60;;
48651;SDS011;34442;52.362;-1.302;2022-08-23T00:43:52;0.40;;;0.40;;
48651;SDS011;34442;52.362;-1.302;2022-08-23T00:46:43;0.75;;;0.63;;
48651;SDS011;34442;52.362;-1.302;2022-08-23T00:49:49;0.40;;;0.40;;
48651;SDS011;34442;52.362;-1.302;2022-08-23T00:52:25;0.60;;;0.45;;
48651;SDS011;34442;52.362;-1.302;2022-08-23T00:54:57;0.75;;;0.52;;
48651;SDS011;34442;52.362;-1.302;2022-08-23T00:57:24;0.60;;;0.57;;
48651;SDS011;34442;52.362;-1.302;2022-08-23T00:59:52;0.50;;;0.50;;
48651;SDS011;34442;52.362;-1.302;2022-08-23T01:02:18;0.50;;;0.50;;
48651;SDS011;34442;52.362;-1.302;2022-08-23T01:04:54;0.35;;;0.32;;
48651;SDS011;34442;52.362;-1.302;2022-08-23T01:07:27;0.47;;;0.40;;
48651;SDS011;34442;52.362;-1.302;2022-08-23T01:09:54;0.55;;;0.40;;
48651;SDS011;34442;52.362;-1.302;2022-08-23T01:12:30;0.73;;;0.47;;
48651;SDS011;34442;52.362;-1.302;2022-08-23T01:15:02;0.73;;;0.50;;
48651;SDS011;34442;52.362;-1.302;2022-08-23T01:17:37;0.47;;;0.40;;
48651;SDS011;34442;52.362;-1.302;2022-08-23T01:20:12;0.60;;;0.50;;
48651;SDS011;34442;52.362;-1.302;2022-08-23T01:22:49;0.30;;;0.30;;
48651;SDS011;34442;52.362;-1.302;2022-08-23T01:25:22;0.60;;;0.60;;
48651;SDS011;34442;52.362;-1.302;2022-08-23T01:27:49;0.65;;;0.40;;
48651;SDS011;34442;52.362;-1.302;2022-08-23T01:30:18;0.32;;;0.32;;
48651;SDS011;34442;52.362;-1.302;2022-08-23T01:32:48;1.15;;;0.65;;
48651;SDS011;34442;52.362;-1.302;2022-08-23T01:35:18;0.50;;;0.40;;
48651;SDS011;34442;52.362;-1.302;2022-08-23T01:37:46;0.30;;;0.30;;
48651;SDS011;34442;52.362;-1.302;2022-08-23T01:40:12;0.45;;;0.40;;
48651;SDS011;34442;52.362;-1.302;2022-08-23T01:42:38;0.63;;;0.40;;
48651;SDS011;34442;52.362;-1.302;2022-08-23T01:45:09;0.30;;;0.30;;
48651;SDS011;34442;52.362;-1.302;2022-08-23T01:47:37;0.50;;;0.43;;
48651;SDS011;34442;52.362;-1.302;2022-08-23T01:50:06;0.82;;;0.50;;
48651;SDS011;34442;52.362;-1.302;2022-08-23T01:52:33;0.57;;;0.47;;
48651;SDS011;34442;52.362;-1.302;2022-08-23T01:55:00;0.50;;;0.50;;
48651;SDS011;34442;52.362;-1.302;2022-08-23T01:57:27;0.63;;;0.50;;
48651;SDS011;34442;52.362;-1.302;2022-08-23T01:59:54;0.30;;;0.30;;
48651;SDS011;34442;52.362;-1.302;2022-08-23T02:02:22;0.70;;;0.50;;
48651;SDS011;34442;52.362;-1.302;2022-08-23T02:04:48;0.80;;;0.45;;
48651;SDS011;34442;52.362;-1.302;2022-08-23T02:07:14;0.63;;;0.50;;
48651;SDS011;34442;52.362;-1.302;2022-08-23T02:09:40;0.85;;;0.50;;
48651;SDS011;34442;52.362;-1.302;2022-08-23T02:12:07;0.60;;;0.60;;
48651;SDS011;34442;52.362;-1.302;2022-08-23T02:14:33;0.55;;;0.55;;
48651;SDS011;34442;52.362;-1.302;2022-08-23T02:17:01;0.60;;;0.60;;
48651;SDS011;34442;52.362;-1.302;2022-08-23T02:19:29;0.38;;;0.38;;
48651;SDS011;34442;52.362;-1.302;2022-08-23T02:21:56;1.23;;;0.60;;
48651;SDS011;34442;52.362;-1.302;2022-08-23T02:24:22;0.50;;;0.50;;
48651;SDS011;34442;52.362;-1.302;2022-08-23T02:26:51;1.40;;;0.50;;
48651;SDS011;34442;52.362;-1.302;2022-08-23T02:29:20;0.40;;;0.40;;
48651;SDS011;34442;52.362;-1.302;2022-08-23T02:31:48;0.50;;;0.50;;
48651;SDS011;34442;52.362;-1.302;2022-08-23T02:34:14;0.57;;;0.40;;
48651;SDS011;34442;52.362;-1.302;2022-08-23T02:36:41;0.47;;;0.45;;
48651;SDS011;34442;52.362;-1.302;2022-08-23T02:39:08;1.25;;;0.70;;
48651;SDS011;34442;52.362;-1.302;2022-08-23T02:41:35;0.50;;;0.50;;
48651;SDS011;34442;52.362;-1.302;2022-08-23T02:44:03;0.85;;;0.50;;
48651;SDS011;34442;52.362;-1.302;2022-08-23T02:46:30;1.05;;;0.57;;
48651;SDS011;34442;52.362;-1.302;2022-08-23T02:48:56;0.60;;;0.50;;
48651;SDS011;34442;52.362;-1.302;2022-08-23T02:51:22;0.85;;;0.50;;
48651;SDS011;34442;52.362;-1.302;2022-08-23T02:53:48;0.70;;;0.50;;
48651;SDS011;34442;52.362;-1.302;2022-08-23T02:56:15;0.65;;;0.55;;
48651;SDS011;34442;52.362;-1.302;2022-08-23T02:58:41;1.05;;;0.73;;
48651;SDS011;34442;52.362;-1.302;2022-08-23T03:01:14;0.88;;;0.60;;
48651;SDS011;34442;52.362;-1.302;2022-08-23T03:04:01;0.73;;;0.50;;
48651;SDS011;34442;52.362;-1.302;2022-08-23T03:06:28;1.23;;;0.80;;
48651;SDS011;34442;52.362;-1.302;2022-08-23T03:08:54;0.90;;;0.55;;
48651;SDS011;34442;52.362;-1.302;2022-08-23T03:11:22;0.95;;;0.60;;
48651;SDS011;34442;52.362;-1.302;2022-08-23T03:13:49;1.58;;;0.60;;
48651;SDS011;34442;52.362;-1.302;2022-08-23T03:16:17;0.98;;;0.68;;
48651;SDS011;34442;52.362;-1.302;2022-08-23T03:18:44;1.08;;;0.70;;
48651;SDS011;34442;52.362;-1.302;2022-08-23T03:21:11;0.60;;;0.60;;
48651;SDS011;34442;52.362;-1.302;2022-08-23T03:23:37;0.88;;;0.68;;
48651;SDS011;34442;52.362;-1.302;2022-08-23T03:26:04;1.08;;;0.50;;
48651;SDS011;34442;52.362;-1.302;2022-08-23T03:28:32;1.05;;;0.65;;
48651;SDS011;34442;52.362;-1.302;2022-08-23T03:30:59;1.35;;;0.60;;
48651;SDS011;34442;52.362;-1.302;2022-08-23T03:33:26;1.35;;;0.80;;
48651;SDS011;34442;52.362;-1.302;2022-08-23T03:35:52;1.00;;;0.80;;
48651;SDS011;34442;52.362;-1.302;2022-08-23T03:38:23;1.30;;;0.70;;
48651;SDS011;34442;52.362;-1.302;2022-08-23T03:40:49;0.52;;;0.52;;
48651;SDS011;34442;52.362;-1.302;2022-08-23T03:43:17;1.38;;;0.70;;
48651;SDS011;34442;52.362;-1.302;2022-08-23T03:45:43;1.30;;;0.70;;
48651;SDS011;34442;52.362;-1.302;2022-08-23T03:48:10;1.45;;;0.90;;
48651;SDS011;34442;52.362;-1.302;2022-08-23T03:50:36;0.70;;;0.60;;
48651;SDS011;34442;52.362;-1.302;2022-08-23T03:53:03;0.50;;;0.50;;
48651;SDS011;34442;52.362;-1.302;2022-08-23T03:55:29;1.48;;;0.90;;
48651;SDS011;34442;52.362;-1.302;2022-08-23T03:57:55;1.05;;;0.77;;
48651;SDS011;34442;52.362;-1.302;2022-08-23T04:00:21;1.00;;;0.75;;
48651;SDS011;34442;52.362;-1.302;2022-08-23T04:02:47;2.47;;;1.27;;
48651;SDS011;34442;52.362;-1.302;2022-08-23T04:05:14;1.92;;;1.08;;
48651;SDS011;34442;52.362;-1.302;2022-08-23T04:07:40;1.05;;;0.77;;
48651;SDS011;34442;52.362;-1.302;2022-08-23T04:10:07;1.33;;;0.88;;
48651;SDS011;34442;52.362;-1.302;2022-08-23T04:12:34;1.35;;;0.80;;
48651;SDS011;34442;52.362;-1.302;2022-08-23T04:15:01;1.85;;;1.00;;
48651;SDS011;34442;52.362;-1.302;2022-08-23T04:17:27;1.10;;;0.90;;
48651;SDS011;34442;52.362;-1.302;2022-08-23T04:19:54;1.63;;;1.00;;
48651;SDS011;34442;52.362;-1.302;2022-08-23T04:22:21;1.15;;;0.80;;
48651;SDS011;34442;52.362;-1.302;2022-08-23T04:24:48;3.13;;;1.20;;
48651;SDS011;34442;52.362;-1.302;2022-08-23T04:27:15;2.17;;;1.15;;
48651;SDS011;34442;52.362;-1.302;2022-08-23T04:29:41;2.95;;;1.20;;
48651;SDS011;34442;52.362;-1.302;2022-08-23T04:32:08;1.27;;;0.63;;
48651;SDS011;34442;52.362;-1.302;2022-08-23T04:34:36;1.40;;;0.90;;
48651;SDS011;34442;52.362;-1.302;2022-08-23T04:37:04;2.08;;;0.90;;
48651;SDS011;34442;52.362;-1.302;2022-08-23T04:39:31;1.63;;;0.80;;
48651;SDS011;34442;52.362;-1.302;2022-08-23T04:42:17;2.03;;;1.00;;
48651;SDS011;34442;52.362;-1.302;2022-08-23T04:44:43;1.55;;;0.95;;
48651;SDS011;34442;52.362;-1.302;2022-08-23T04:47:09;1.83;;;0.98;;
48651;SDS011;34442;52.362;-1.302;2022-08-23T04:49:35;1.48;;;0.93;;
48651;SDS011;34442;52.362;-1.302;2022-08-23T04:52:01;1.33;;;0.82;;
48651;SDS011;34442;52.362;-1.302;2022-08-23T04:54:27;1.45;;;0.80;;
48651;SDS011;34442;52.362;-1.302;2022-08-23T04:56:53;1.15;;;0.70;;
48651;SDS011;34442;52.362;-1.302;2022-08-23T04:59:21;1.88;;;1.08;;
48651;SDS011;34442;52.362;-1.302;2022-08-23T05:01:47;1.55;;;1.02;;
48651;SDS011;34442;52.362;-1.302;2022-08-23T05:04:14;1.73;;;0.90;;
48651;SDS011;34442;52.362;-1.302;2022-08-23T05:06:40;1.27;;;0.90;;
48651;SDS011;34442;52.362;-1.302;2022-08-23T05:09:06;1.38;;;0.77;;
48651;SDS011;34442;52.362;-1.302;2022-08-23T05:11:33;1.80;;;0.95;;
48651;SDS011;34442;52.362;-1.302;2022-08-23T05:13:59;2.17;;;1.10;;
48651;SDS011;34442;52.362;-1.302;2022-08-23T05:16:25;1.92;;;1.17;;
48651;SDS011;34442;52.362;-1.302;2022-08-23T05:18:51;2.05;;;1.02;;
48651;SDS011;34442;52.362;-1.302;2022-08-23T05:21:19;2.25;;;1.20;;
48651;SDS011;34442;52.362;-1.302;2022-08-23T05:23:46;2.33;;;1.40;;
48651;SDS011;34442;52.362;-1.302;2022-08-23T05:26:13;1.40;;;0.82;;
48651;SDS011;34442;52.362;-1.302;2022-08-23T05:28:41;1.35;;;0.93;;
48651;SDS011;34442;52.362;-1.302;2022-08-23T05:31:13;3.50;;;1.10;;
48651;SDS011;34442;52.362;-1.302;2022-08-23T05:33:44;1.23;;;0.95;;
48651;SDS011;34442;52.362;-1.302;2022-08-23T05:36:11;2.88;;;1.27;;
48651;SDS011;34442;52.362;-1.302;2022-08-23T05:38:39;1.83;;;1.15;;
48651;SDS011;34442;52.362;-1.302;2022-08-23T05:41:06;2.20;;;1.23;;
48651;SDS011;34442;52.362;-1.302;2022-08-23T05:43:33;2.67;;;1.33;;
48651;SDS011;34442;52.362;-1.302;2022-08-23T05:48:31;2.85;;;1.48;;
48651;SDS011;34442;52.362;-1.302;2022-08-23T05:51:14;2.58;;;1.38;;
48651;SDS011;34442;52.362;-1.302;2022-08-23T05:53:56;2.22;;;1.20;;
48651;SDS011;34442;52.362;-1.302;2022-08-23T05:56:27;2.03;;;1.00;;
48651;SDS011;34442;52.362;-1.302;2022-08-23T05:58:59;1.73;;;1.13;;
48651;SDS011;34442;52.362;-1.302;2022-08-23T06:01:29;2.25;;;1.10;;
48651;SDS011;34442;52.362;-1.302;2022-08-23T06:03:57;1.77;;;1.00;;
48651;SDS011;34442;52.362;-1.302;2022-08-23T06:06:25;2.08;;;1.10;;
48651;SDS011;34442;52.362;-1.302;2022-08-23T06:08:51;1.70;;;1.10;;
48651;SDS011;34442;52.362;-1.302;2022-08-23T06:11:18;1.95;;;0.77;;
48651;SDS011;34442;52.362;-1.302;2022-08-23T06:13:48;0.77;;;0.57;;
48651;SDS011;34442;52.362;-1.302;2022-08-23T06:16:17;0.80;;;0.50;;
48651;SDS011;34442;52.362;-1.302;2022-08-23T06:18:45;0.50;;;0.50;;
48651;SDS011;34442;52.362;-1.302;2022-08-23T06:21:12;1.20;;;0.60;;
48651;SDS011;34442;52.362;-1.302;2022-08-23T06:23:40;0.38;;;0.38;;
48651;SDS011;34442;52.362;-1.302;2022-08-23T06:26:11;0.30;;;0.30;;
48651;SDS011;34442;52.362;-1.302;2022-08-23T06:28:43;0.35;;;0.22;;
48651;SDS011;34442;52.362;-1.302;2022-08-23T06:31:10;0.30;;;0.30;;
48651;SDS011;34442;52.362;-1.302;2022-08-23T06:33:36;0.40;;;0.35;;
48651;SDS011;34442;52.362;-1.302;2022-08-23T06:36:07;0.30;;;0.20;;
48651;SDS011;34442;52.362;-1.302;2022-08-23T06:38:35;0.20;;;0.20;;
48651;SDS011;34442;52.362;-1.302;2022-08-23T06:41:05;0.20;;;0.20;;
48651;SDS011;34442;52.362;-1.302;2022-08-23T06:43:34;0.23;;;0.23;;
48651;SDS011;34442;52.362;-1.302;2022-08-23T06:46:10;0.20;;;0.20;;
48651;SDS011;34442;52.362;-1.302;2022-08-23T06:48:37;0.13;;;0.13;;
48651;SDS011;34442;52.362;-1.302;2022-08-23T06:51:10;0.20;;;0.20;;
48651;SDS011;34442;52.362;-1.302;2022-08-23T06:53:39;0.20;;;0.20;;
48651;SDS011;34442;52.362;-1.302;2022-08-23T06:56:05;0.20;;;0.20;;
48651;SDS011;34442;52.362;-1.302;2022-08-23T06:58:32;0.40;;;0.25;;
48651;SDS011;34442;52.362;-1.302;2022-08-23T07:01:11;0.40;;;0.40;;
48651;SDS011;34442;52.362;-1.302;2022-08-23T07:03:43;0.25;;;0.22;;
48651;SDS011;34442;52.362;-1.302;2022-08-23T07:06:09;0.30;;;0.30;;
48651;SDS011;34442;52.362;-1.302;2022-08-23T07:08:35;0.55;;;0.30;;
48651;SDS011;34442;52.362;-1.302;2022-08-23T07:11:01;0.20;;;0.20;;
48651;SDS011;34442;52.362;-1.302;2022-08-23T07:13:27;0.15;;;0.15;;
48651;SDS011;34442;52.362;-1.302;2022-08-23T07:15:57;0.40;;;0.30;;
48651;SDS011;34442;52.362;-1.302;2022-08-23T07:18:24;0.82;;;0.60;;
48651;SDS011;34442;52.362;-1.302;2022-08-23T07:20:57;0.55;;;0.50;;
48651;SDS011;34442;52.362;-1.302;2022-08-23T07:23:27;0.95;;;0.55;;
48651;SDS011;34442;52.362;-1.302;2022-08-23T07:26:01;1.08;;;0.60;;
48651;SDS011;34442;52.362;-1.302;2022-08-23T07:28:31;1.02;;;0.80;;
48651;SDS011;34442;52.362;-1.302;2022-08-23T07:33:38;1.38;;;0.77;;
48651;SDS011;34442;52.362;-1.302;2022-08-23T07:36:04;0.93;;;0.63;;
48651;SDS011;34442;52.362;-1.302;2022-08-23T07:38:31;0.98;;;0.50;;
48651;SDS011;34442;52.362;-1.302;2022-08-23T07:40:57;2.58;;;0.80;;
48651;SDS011;34442;52.362;-1.302;2022-08-23T07:43:23;0.65;;;0.50;;
48651;SDS011;34442;52.362;-1.302;2022-08-23T07:45:50;0.70;;;0.60;;
48651;SDS011;34442;52.362;-1.302;2022-08-23T07:48:16;0.98;;;0.70;;
48651;SDS011;34442;52.362;-1.302;2022-08-23T07:50:42;0.60;;;0.60;;
48651;SDS011;34442;52.362;-1.302;2022-08-23T07:53:17;1.05;;;0.77;;
48651;SDS011;34442;52.362;-1.302;2022-08-23T07:55:43;1.42;;;0.90;;
48651;SDS011;34442;52.362;-1.302;2022-08-23T07:58:09;1.25;;;0.85;;
48651;SDS011;34442;52.362;-1.302;2022-08-23T08:00:35;1.67;;;0.70;;
48651;SDS011;34442;52.362;-1.302;2022-08-23T08:03:01;0.85;;;0.70;;
48651;SDS011;34442;52.362;-1.302;2022-08-23T08:05:27;1.40;;;0.80;;
48651;SDS011;34442;52.362;-1.302;2022-08-23T08:07:55;1.73;;;0.85;;
48651;SDS011;34442;52.362;-1.302;2022-08-23T08:10:21;1.33;;;0.80;;
48651;SDS011;34442;52.362;-1.302;2022-08-23T08:12:47;2.10;;;0.90;;
48651;SDS011;34442;52.362;-1.302;2022-08-23T08:15:14;1.17;;;0.80;;
48651;SDS011;34442;52.362;-1.302;2022-08-23T08:17:41;1.55;;;0.82;;
48651;SDS011;34442;52.362;-1.302;2022-08-23T08:20:08;2.17;;;0.90;;
48651;SDS011;34442;52.362;-1.302;2022-08-23T08:22:34;2.30;;;1.10;;
48651;SDS011;34442;52.362;-1.302;2022-08-23T08:25:00;1.75;;;0.88;;
48651;SDS011;34442;52.362;-1.302;2022-08-23T08:27:26;1.38;;;1.02;;
48651;SDS011;34442;52.362;-1.302;2022-08-23T08:29:52;1.90;;;0.85;;
48651;SDS011;34442;52.362;-1.302;2022-08-23T08:32:19;1.15;;;0.80;;
48651;SDS011;34442;52.362;-1.302;2022-08-23T08:34:45;1.40;;;0.85;;
48651;SDS011;34442;52.362;-1.302;2022-08-23T08:37:11;1.35;;;0.80;;
48651;SDS011;34442;52.362;-1.302;2022-08-23T08:39:37;1.65;;;0.90;;
48651;SDS011;34442;52.362;-1.302;2022-08-23T08:47:33;1.38;;;0.88;;
48651;SDS011;34442;52.362;-1.302;2022-08-23T08:50:46;0.68;;;0.57;;
48651;SDS011;34442;52.362;-1.302;2022-08-23T08:53:33;1.05;;;0.80;;
48651;SDS011;34442;52.362;-1.302;2022-08-23T08:56:11;0.60;;;0.60;;
48651;SDS011;34442;52.362;-1.302;2022-08-23T08:58:49;1.30;;;0.75;;
48651;SDS011;34442;52.362;-1.302;2022-08-23T09:01:18;0.52;;;0.43;;
48651;SDS011;34442;52.362;-1.302;2022-08-23T09:03:46;0.85;;;0.70;;
48651;SDS011;34442;52.362;-1.302;2022-08-23T09:08:46;0.70;;;0.70;;
48651;SDS011;34442;52.362;-1.302;2022-08-23T09:16:50;1.25;;;0.90;;
48651;SDS011;34442;52.362;-1.302;2022-08-23T09:19:19;1.30;;;0.90;;
48651;SDS011;34442;52.362;-1.302;2022-08-23T09:21:58;1.45;;;0.80;;
48651;SDS011;34442;52.362;-1.302;2022-08-23T09:24:27;1.25;;;0.70;;
48651;SDS011;34442;52.362;-1.302;2022-08-23T09:26:54;0.65;;;0.60;;
48651;SDS011;34442;52.362;-1.302;2022-08-23T09:29:31;1.00;;;0.55;;
48651;SDS011;34442;52.362;-1.302;2022-08-23T09:31:59;1.90;;;0.70;;
48651;SDS011;34442;52.362;-1.302;2022-08-23T09:39:41;2.13;;;1.00;;
48651;SDS011;34442;52.362;-1.302;2022-08-23T09:42:30;1.10;;;0.80;;
48651;SDS011;34442;52.362;-1.302;2022-08-23T09:44:58;1.45;;;0.80;;
48651;SDS011;34442;52.362;-1.302;2022-08-23T09:47:29;0.65;;;0.60;;
48651;SDS011;34442;52.362;-1.302;2022-08-23T09:50:09;0.82;;;0.82;;
48651;SDS011;34442;52.362;-1.302;2022-08-23T09:52:42;1.23;;;0.90;;
48651;SDS011;34442;52.362;-1.302;2022-08-23T09:55:24;1.75;;;1.00;;
48651;SDS011;34442;52.362;-1.302;2022-08-23T09:57:54;2.25;;;0.85;;
48651;SDS011;34442;52.362;-1.302;2022-08-23T10:00:25;0.65;;;0.55;;
48651;SDS011;34442;52.362;-1.302;2022-08-23T10:02:53;1.23;;;0.88;;
48651;SDS011;34442;52.362;-1.302;2022-08-23T10:05:40;0.57;;;0.45;;
48651;SDS011;34442;52.362;-1.302;2022-08-23T10:08:06;0.90;;;0.63;;
48651;SDS011;34442;52.362;-1.302;2022-08-23T10:13:11;1.08;;;0.60;;
48651;SDS011;34442;52.362;-1.302;2022-08-23T10:18:38;0.73;;;0.50;;
48651;SDS011;34442;52.362;-1.302;2022-08-23T10:21:17;1.08;;;0.60;;
48651;SDS011;34442;52.362;-1.302;2022-08-23T10:26:30;1.00;;;0.50;;
48651;SDS011;34442;52.362;-1.302;2022-08-23T10:40:02;0.85;;;0.68;;
48651;SDS011;34442;52.362;-1.302;2022-08-23T10:42:47;0.50;;;0.50;;
48651;SDS011;34442;52.362;-1.302;2022-08-23T10:45:27;0.52;;;0.52;;
48651;SDS011;34442;52.362;-1.302;2022-08-23T10:50:42;0.45;;;0.45;;
48651;SDS011;34442;52.362;-1.302;2022-08-23T10:53:15;0.40;;;0.32;;
48651;SDS011;34442;52.362;-1.302;2022-08-23T10:55:46;0.65;;;0.60;;
48651;SDS011;34442;52.362;-1.302;2022-08-23T10:58:35;0.80;;;0.50;;
48651;SDS011;34442;52.362;-1.302;2022-08-23T11:01:18;0.43;;;0.40;;
48651;SDS011;34442;52.362;-1.302;2022-08-23T11:03:59;0.35;;;0.30;;
48651;SDS011;34442;52.362;-1.302;2022-08-23T11:09:04;0.43;;;0.40;;
48651;SDS011;34442;52.362;-1.302;2022-08-23T11:11:49;0.20;;;0.20;;
48651;SDS011;34442;52.362;-1.302;2022-08-23T11:16:57;0.32;;;0.30;;
48651;SDS011;34442;52.362;-1.302;2022-08-23T11:19:51;0.28;;;0.28;;
48651;SDS011;34442;52.362;-1.302;2022-08-23T11:22:20;0.68;;;0.40;;
48651;SDS011;34442;52.362;-1.302;2022-08-23T11:25:01;0.73;;;0.30;;
48651;SDS011;34442;52.362;-1.302;2022-08-23T11:28:29;0.28;;;0.28;;
48651;SDS011;34442;52.362;-1.302;2022-08-23T11:30:47;0.13;;;0.13;;
48651;SDS011;34442;52.362;-1.302;2022-08-23T11:35:48;0.60;;;0.43;;
48651;SDS011;34442;52.362;-1.302;2022-08-23T11:41:11;0.40;;;0.40;;
48651;SDS011;34442;52.362;-1.302;2022-08-23T11:43:44;0.95;;;0.30;;
48651;SDS011;34442;52.362;-1.302;2022-08-23T11:48:48;0.90;;;0.50;;
48651;SDS011;34442;52.362;-1.302;2022-08-23T11:51:21;0.60;;;0.50;;
48651;SDS011;34442;52.362;-1.302;2022-08-23T11:53:55;0.95;;;0.50;;
48651;SDS011;34442;52.362;-1.302;2022-08-23T12:01:35;0.40;;;0.35;;
48651;SDS011;34442;52.362;-1.302;2022-08-23T12:04:05;0.32;;;0.32;;
48651;SDS011;34442;52.362;-1.302;2022-08-23T12:19:51;0.30;;;0.30;;
48651;SDS011;34442;52.362;-1.302;2022-08-23T12:22:25;1.05;;;0.55;;
48651;SDS011;34442;52.362;-1.302;2022-08-23T12:24:58;0.43;;;0.35;;
48651;SDS011;34442;52.362;-1.302;2022-08-23T12:30:25;0.15;;;0.15;;
48651;SDS011;34442;52.362;-1.302;2022-08-23T12:33:07;0.20;;;0.20;;
48651;SDS011;34442;52.362;-1.302;2022-08-23T12:41:12;0.25;;;0.25;;
48651;SDS011;34442;52.362;-1.302;2022-08-23T12:43:52;0.20;;;0.20;;
48651;SDS011;34442;52.362;-1.302;2022-08-23T12:49:08;0.20;;;0.20;;
48651;SDS011;34442;52.362;-1.302;2022-08-23T12:51:53;0.30;;;0.25;;
48651;SDS011;34442;52.362;-1.302;2022-08-23T12:54:30;0.17;;;0.17;;
48651;SDS011;34442;52.362;-1.302;2022-08-23T12:56:59;0.38;;;0.20;;
48651;SDS011;34442;52.362;-1.302;2022-08-23T12:59:36;0.70;;;0.40;;
48651;SDS011;34442;52.362;-1.302;2022-08-23T13:02:16;0.40;;;0.40;;
48651;SDS011;34442;52.362;-1.302;2022-08-23T13:04:47;0.22;;;0.22;;
48651;SDS011;34442;52.362;-1.302;2022-08-23T13:07:14;0.93;;;0.43;;
48651;SDS011;34442;52.362;-1.302;2022-08-23T13:09:45;0.22;;;0.20;;
48651;SDS011;34442;52.362;-1.302;2022-08-23T13:12:12;0.40;;;0.30;;
48651;SDS011;34442;52.362;-1.302;2022-08-23T13:14:48;0.30;;;0.28;;
48651;SDS011;34442;52.362;-1.302;2022-08-23T13:17:17;0.30;;;0.30;;
48651;SDS011;34442;52.362;-1.302;2022-08-23T13:19:49;0.20;;;0.10;;
48651;SDS011;34442;52.362;-1.302;2022-08-23T13:27:58;0.65;;;0.30;;
48651;SDS011;34442;52.362;-1.302;2022-08-23T13:30:25;0.43;;;0.43;;
48651;SDS011;34442;52.362;-1.302;2022-08-23T13:35:34;0.32;;;0.30;;
48651;SDS011;34442;52.362;-1.302;2022-08-23T13:40:45;0.30;;;0.20;;
48651;SDS011;34442;52.362;-1.302;2022-08-23T13:45:49;0.55;;;0.40;;
48651;SDS011;34442;52.362;-1.302;2022-08-23T13:48:20;0.30;;;0.22;;
48651;SDS011;34442;52.362;-1.302;2022-08-23T13:50:53;0.40;;;0.40;;
48651;SDS011;34442;52.362;-1.302;2022-08-23T13:53:19;0.40;;;0.40;;
48651;SDS011;34442;52.362;-1.302;2022-08-23T13:55:50;0.30;;;0.30;;
48651;SDS011;34442;52.362;-1.302;2022-08-23T13:58:26;0.40;;;0.40;;
48651;SDS011;34442;52.362;-1.302;2022-08-23T14:00:55;0.40;;;0.40;;
48651;SDS011;34442;52.362;-1.302;2022-08-23T14:03:22;0.60;;;0.40;;
48651;SDS011;34442;52.362;-1.302;2022-08-23T14:05:49;0.20;;;0.20;;
48651;SDS011;34442;52.362;-1.302;2022-08-23T14:08:15;0.32;;;0.28;;
48651;SDS011;34442;52.362;-1.302;2022-08-23T14:10:41;0.30;;;0.30;;
48651;SDS011;34442;52.362;-1.302;2022-08-23T14:13:08;0.75;;;0.43;;
48651;SDS011;34442;52.362;-1.302;2022-08-23T14:15:36;0.30;;;0.30;;
48651;SDS011;34442;52.362;-1.302;2022-08-23T14:18:04;0.40;;;0.40;;
48651;SDS011;34442;52.362;-1.302;2022-08-23T14:20:30;0.35;;;0.35;;
48651;SDS011;34442;52.362;-1.302;2022-08-23T14:22:56;0.80;;;0.40;;
48651;SDS011;34442;52.362;-1.302;2022-08-23T14:25:23;0.38;;;0.35;;
48651;SDS011;34442;52.362;-1.302;2022-08-23T14:27:49;0.70;;;0.35;;
48651;SDS011;34442;52.362;-1.302;2022-08-23T14:30:23;0.40;;;0.40;;
48651;SDS011;34442;52.362;-1.302;2022-08-23T14:32:51;1.15;;;0.50;;
48651;SDS011;34442;52.362;-1.302;2022-08-23T14:35:18;0.30;;;0.25;;
48651;SDS011;34442;52.362;-1.302;2022-08-23T14:37:44;0.57;;;0.43;;
48651;SDS011;34442;52.362;-1.302;2022-08-23T14:40:11;0.73;;;0.50;;
48651;SDS011;34442;52.362;-1.302;2022-08-23T14:42:37;0.90;;;0.47;;
48651;SDS011;34442;52.362;-1.302;2022-08-23T14:45:04;0.52;;;0.50;;
48651;SDS011;34442;52.362;-1.302;2022-08-23T14:47:31;1.42;;;0.50;;
48651;SDS011;34442;52.362;-1.302;2022-08-23T14:50:00;0.43;;;0.30;;
48651;SDS011;34442;52.362;-1.302;2022-08-23T14:52:27;0.30;;;0.30;;
48651;SDS011;34442;52.362;-1.302;2022-08-23T14:54:54;0.10;;;0.10;;
48651;SDS011;34442;52.362;-1.302;2022-08-23T14:57:20;0.82;;;0.45;;
48651;SDS011;34442;52.362;-1.302;2022-08-23T14:59:46;0.52;;;0.38;;
48651;SDS011;34442;52.362;-1.302;2022-08-23T15:02:20;0.57;;;0.40;;
48651;SDS011;34442;52.362;-1.302;2022-08-23T15:04:49;0.43;;;0.30;;
48651;SDS011;34442;52.362;-1.302;2022-08-23T15:07:15;0.50;;;0.38;;
48651;SDS011;34442;52.362;-1.302;2022-08-23T15:09:41;0.38;;;0.22;;
48651;SDS011;34442;52.362;-1.302;2022-08-23T15:12:07;0.32;;;0.32;;
48651;SDS011;34442;52.362;-1.302;2022-08-23T15:14:33;0.55;;;0.20;;
48651;SDS011;34442;52.362;-1.302;2022-08-23T15:17:00;0.70;;;0.38;;
48651;SDS011;34442;52.362;-1.302;2022-08-23T15:19:28;0.55;;;0.30;;
48651;SDS011;34442;52.362;-1.302;2022-08-23T15:21:54;0.40;;;0.38;;
48651;SDS011;34442;52.362;-1.302;2022-08-23T15:24:20;0.47;;;0.47;;
48651;SDS011;34442;52.362;-1.302;2022-08-23T15:26:46;0.40;;;0.32;;
48651;SDS011;34442;52.362;-1.302;2022-08-23T15:29:12;0.45;;;0.35;;
48651;SDS011;34442;52.362;-1.302;2022-08-23T15:31:38;0.30;;;0.25;;
48651;SDS011;34442;52.362;-1.302;2022-08-23T15:34:04;0.95;;;0.40;;
48651;SDS011;34442;52.362;-1.302;2022-08-23T15:36:30;0.43;;;0.35;;
48651;SDS011;34442;52.362;-1.302;2022-08-23T15:39:00;0.45;;;0.45;;
48651;SDS011;34442;52.362;-1.302;2022-08-23T15:41:26;0.65;;;0.40;;
48651;SDS011;34442;52.362;-1.302;2022-08-23T15:43:52;0.30;;;0.30;;
48651;SDS011;34442;52.362;-1.302;2022-08-23T15:46:19;0.52;;;0.40;;
48651;SDS011;34442;52.362;-1.302;2022-08-23T15:48:52;0.75;;;0.50;;
48651;SDS011;34442;52.362;-1.302;2022-08-23T15:51:21;1.10;;;0.50;;
48651;SDS011;34442;52.362;-1.302;2022-08-23T15:53:47;0.55;;;0.47;;
48651;SDS011;34442;52.362;-1.302;2022-08-23T15:56:15;0.60;;;0.40;;
48651;SDS011;34442;52.362;-1.302;2022-08-23T15:58:43;0.60;;;0.38;;
48651;SDS011;34442;52.362;-1.302;2022-08-23T16:01:10;0.35;;;0.30;;
48651;SDS011;34442;52.362;-1.302;2022-08-23T16:03:37;0.80;;;0.50;;
48651;SDS011;34442;52.362;-1.302;2022-08-23T16:06:06;0.52;;;0.30;;
48651;SDS011;34442;52.362;-1.302;2022-08-23T16:08:35;1.45;;;0.60;;
48651;SDS011;34442;52.362;-1.302;2022-08-23T16:11:03;1.25;;;0.47;;
48651;SDS011;34442;52.362;-1.302;2022-08-23T16:13:35;0.30;;;0.30;;
48651;SDS011;34442;52.362;-1.302;2022-08-23T16:16:07;0.30;;;0.30;;
48651;SDS011;34442;52.362;-1.302;2022-08-23T16:18:40;1.02;;;0.57;;
48651;SDS011;34442;52.362;-1.302;2022-08-23T16:21:06;1.83;;;0.80;;
48651;SDS011;34442;52.362;-1.302;2022-08-23T16:23:32;1.75;;;0.85;;
48651;SDS011;34442;52.362;-1.302;2022-08-23T16:25:58;1.40;;;0.80;;
48651;SDS011;34442;52.362;-1.302;2022-08-23T16:28:24;0.90;;;0.70;;
48651;SDS011;34442;52.362;-1.302;2022-08-23T16:30:50;2.42;;;0.88;;
48651;SDS011;34442;52.362;-1.302;2022-08-23T16:33:16;0.93;;;0.40;;
48651;SDS011;34442;52.362;-1.302;2022-08-23T16:35:42;0.68;;;0.50;;